Time;durP1;ratioP1;P1;durP2;ratioP2;P2;SDS_P1;SDS_P2;PMS_P1;PMS_P2;Temp;Humidity;BMP_temperature;BMP_pressure;BME280_temperature;BME280_humidity;BME280_pressure;Samples;Min_cycle;Max_cycle;Signal;HPM_P1;HPM_P2
2024/01/21 00:01:56;;;;;;;11.20;4.18;;;-1.70;99.90;;;;;;5010247;28;20034;-72
2024/01/21 00:04:22;;;;;;;10.57;4.28;;;-1.60;99.90;;;;;;5011287;28;20037;-74
2024/01/21 00:06:47;;;;;;;13.95;4.18;;;-1.60;99.90;;;;;;5010090;28;20442;-80
2024/01/21 00:09:13;;;;;;;10.48;4.45;;;-1.60;99.90;;;;;;5009426;28;20030;-76
2024/01/21 00:11:39;;;;;;;10.55;4.45;;;-1.60;99.90;;;;;;4999700;28;20466;-75
2024/01/21 00:14:04;;;;;;;10.63;4.47;;;-1.60;99.90;;;;;;5009954;28;20084;-72
2024/01/21 00:16:30;;;;;;;11.30;3.85;;;-1.60;99.90;;;;;;5007873;28;20034;-72
2024/01/21 00:18:55;;;;;;;10.07;3.92;;;-1.60;99.90;;;;;;4990541;28;20081;-72
2024/01/21 00:21:21;;;;;;;11.75;3.55;;;-1.40;99.90;;;;;;5001843;28;20118;-72
2024/01/21 00:23:47;;;;;;;10.80;3.83;;;-1.50;99.90;;;;;;4999542;28;20041;-78
2024/01/21 00:26:12;;;;;;;9.75;3.75;;;-1.40;99.90;;;;;;5006246;28;20105;-72
2024/01/21 00:28:38;;;;;;;9.88;3.25;;;-1.40;99.90;;;;;;5002828;28;20022;-73
2024/01/21 00:31:04;;;;;;;7.18;3.20;;;-1.40;99.90;;;;;;4991686;28;20073;-74
2024/01/21 00:33:30;;;;;;;8.35;3.65;;;-1.40;99.90;;;;;;5010611;28;20026;-73
2024/01/21 00:35:56;;;;;;;8.52;3.40;;;-1.50;99.90;;;;;;5009879;28;20092;-73
2024/01/21 00:38:21;;;;;;;6.65;3.33;;;-1.50;99.90;;;;;;5006863;28;20057;-75
2024/01/21 00:40:47;;;;;;;9.95;3.85;;;-1.50;99.90;;;;;;4993092;28;20483;-72
2024/01/21 00:43:13;;;;;;;11.35;4.72;;;-1.40;99.90;;;;;;4998380;28;20493;-73
2024/01/21 00:45:38;;;;;;;10.80;3.95;;;-1.40;99.90;;;;;;5010474;28;20037;-73
2024/01/21 00:48:04;;;;;;;8.65;3.53;;;-1.60;99.90;;;;;;5007001;28;20041;-73
2024/01/21 00:50:30;;;;;;;7.28;3.20;;;-1.70;99.90;;;;;;5005386;28;20423;-72
2024/01/21 00:52:56;;;;;;;7.88;3.10;;;-1.60;99.90;;;;;;4999796;28;20027;-71
2024/01/21 00:55:21;;;;;;;9.00;3.08;;;-1.50;99.90;;;;;;5009026;28;20034;-75
2024/01/21 00:57:47;;;;;;;7.20;2.90;;;-1.40;99.90;;;;;;5009554;28;20208;-71
2024/01/21 01:00:14;;;;;;;8.40;3.22;;;-1.40;99.90;;;;;;5004756;28;20046;-76
2024/01/21 01:02:40;;;;;;;8.05;2.85;;;-1.40;99.90;;;;;;4995567;28;20494;-73
2024/01/21 01:05:06;;;;;;;5.60;2.70;;;-1.40;99.90;;;;;;5006740;28;20044;-73
2024/01/21 01:07:31;;;;;;;8.27;3.20;;;-1.20;99.90;;;;;;4999376;28;20146;-75
2024/01/21 01:09:58;;;;;;;7.68;2.75;;;-1.20;99.90;;;;;;5009052;28;20050;-72
2024/01/21 01:12:24;;;;;;;7.60;2.95;;;-1.30;99.90;;;;;;5009964;28;20108;-73
2024/01/21 01:14:49;;;;;;;5.60;2.80;;;-1.40;99.90;;;;;;5009241;28;20038;-72
2024/01/21 01:17:15;;;;;;;8.30;2.63;;;-1.40;99.90;;;;;;4998030;28;20109;-75
2024/01/21 01:19:41;;;;;;;4.20;2.20;;;-1.30;99.90;;;;;;5002828;28;20105;-71
2024/01/21 01:22:07;;;;;;;8.38;3.05;;;-1.10;99.90;;;;;;4996074;28;20042;-74
2024/01/21 01:24:32;;;;;;;7.20;3.03;;;-0.90;99.90;;;;;;5005235;28;20635;-73
2024/01/21 01:26:58;;;;;;;8.07;2.92;;;-0.90;99.90;;;;;;4998584;28;20479;-75
2024/01/21 01:29:23;;;;;;;4.97;2.50;;;-0.90;99.90;;;;;;4990046;28;20070;-72
2024/01/21 01:31:49;;;;;;;7.38;3.05;;;-0.90;99.90;;;;;;4991490;28;20044;-72
2024/01/21 01:34:15;;;;;;;6.40;2.70;;;-0.90;99.90;;;;;;5005765;28;20030;-73
2024/01/21 01:36:40;;;;;;;7.72;2.72;;;-0.90;99.90;;;;;;5006036;28;20023;-72
2024/01/21 01:39:09;;;;;;;6.35;2.42;;;-0.80;99.90;;;;;;5000948;28;20423;-72
2024/01/21 01:41:34;;;;;;;18.52;7.10;;;-0.80;99.90;;;;;;4997260;28;20045;-72
2024/01/21 01:44:00;;;;;;;6.00;2.70;;;-0.70;99.90;;;;;;5004893;28;20054;-72
2024/01/21 01:46:26;;;;;;;6.10;2.60;;;-0.70;99.90;;;;;;5001662;28;20121;-75
2024/01/21 01:48:51;;;;;;;6.75;2.60;;;-0.70;99.90;;;;;;4997072;28;20030;-75
2024/01/21 01:51:18;;;;;;;5.65;2.10;;;-0.60;99.90;;;;;;4997271;28;20069;-73
2024/01/21 01:53:44;;;;;;;7.15;2.50;;;-0.60;99.90;;;;;;4998567;28;20038;-74
2024/01/21 01:56:11;;;;;;;7.80;2.60;;;-0.50;99.90;;;;;;4995643;28;20092;-73
2024/01/21 01:58:38;;;;;;;6.18;2.30;;;-0.60;99.90;;;;;;5002147;28;20035;-73
2024/01/21 02:01:04;;;;;;;6.13;2.30;;;-0.50;99.50;;;;;;4997873;28;20043;-74
2024/01/21 02:03:30;;;;;;;5.55;1.90;;;-0.50;99.90;;;;;;4998370;28;20034;-74
2024/01/21 02:05:56;;;;;;;7.22;2.38;;;-0.60;99.90;;;;;;5011872;28;20026;-80
2024/01/21 02:08:22;;;;;;;7.18;2.75;;;-0.70;99.90;;;;;;5001478;28;20041;-75
2024/01/21 02:10:47;;;;;;;6.55;2.47;;;-0.80;99.90;;;;;;4995501;28;20801;-72
2024/01/21 02:13:13;;;;;;;5.80;2.45;;;-0.80;99.90;;;;;;4998352;28;20580;-77
2024/01/21 02:15:39;;;;;;;6.30;2.30;;;-0.60;99.20;;;;;;5001738;28;20034;-75
2024/01/21 02:18:04;;;;;;;4.95;2.10;;;-0.60;99.80;;;;;;5001145;28;20026;-73
2024/01/21 02:20:30;;;;;;;5.20;2.03;;;-0.70;99.90;;;;;;5007053;28;20040;-73
2024/01/21 02:22:57;;;;;;;6.97;2.53;;;-0.70;99.60;;;;;;5006475;28;20100;-79
2024/01/21 02:25:23;;;;;;;10.23;4.07;;;-0.60;98.90;;;;;;4996659;28;20029;-75
2024/01/21 02:27:49;;;;;;;7.78;3.00;;;-1.10;99.90;;;;;;4989879;28;20438;-73
2024/01/21 02:30:14;;;;;;;7.53;2.38;;;-1.80;99.90;;;;;;5000446;28;20600;-73
2024/01/21 02:32:40;;;;;;;6.90;2.55;;;-1.60;99.90;;;;;;5005185;28;20468;-73
2024/01/21 02:35:06;;;;;;;9.25;2.95;;;-1.40;99.90;;;;;;4997240;28;20427;-73
2024/01/21 02:37:31;;;;;;;8.90;2.92;;;-0.90;99.90;;;;;;5005263;28;20053;-74
2024/01/21 02:39:57;;;;;;;9.30;3.08;;;-1.00;99.90;;;;;;4996035;28;20050;-80
2024/01/21 02:42:25;;;;;;;8.50;3.47;;;-1.10;99.90;;;;;;5004821;28;20475;-73
2024/01/21 02:44:51;;;;;;;8.18;3.10;;;-1.10;99.90;;;;;;4990435;28;20055;-73
2024/01/21 02:47:17;;;;;;;5.85;2.65;;;-0.80;99.70;;;;;;5005234;28;20474;-72
2024/01/21 02:49:43;;;;;;;7.53;3.00;;;-0.60;98.70;;;;;;4999290;28;20030;-73
2024/01/21 02:52:08;;;;;;;11.40;4.05;;;-0.60;99.90;;;;;;4991304;28;20038;-73
2024/01/21 02:54:34;;;;;;;12.70;4.55;;;-0.90;99.90;;;;;;5002027;28;20049;-73
2024/01/21 02:57:00;;;;;;;6.85;2.72;;;-1.10;99.90;;;;;;4988011;28;20157;-79
2024/01/21 02:59:25;;;;;;;9.52;3.50;;;-1.10;99.90;;;;;;4992659;28;20041;-73
2024/01/21 03:01:51;;;;;;;8.23;3.67;;;-1.20;99.90;;;;;;5007735;28;20030;-72
2024/01/21 03:04:16;;;;;;;11.18;4.13;;;-1.30;99.90;;;;;;5003357;28;20188;-72
2024/01/21 03:06:42;;;;;;;10.20;4.30;;;-1.40;99.90;;;;;;4992787;28;20038;-73
2024/01/21 03:09:08;;;;;;;9.88;3.92;;;-1.40;99.90;;;;;;5004705;28;20033;-74
2024/01/21 03:11:35;;;;;;;11.80;4.20;;;-1.40;99.90;;;;;;5007791;28;20034;-74
2024/01/21 03:14:00;;;;;;;12.35;4.15;;;-1.40;99.90;;;;;;5010824;28;20092;-77
2024/01/21 03:16:26;;;;;;;9.88;3.70;;;-1.40;99.90;;;;;;5007445;28;20037;-73
2024/01/21 03:18:52;;;;;;;10.40;3.47;;;-1.40;99.90;;;;;;5000084;28;20045;-74
2024/01/21 03:21:17;;;;;;;9.85;3.92;;;-1.50;99.90;;;;;;5000734;28;20109;-73
2024/01/21 03:23:44;;;;;;;8.68;3.72;;;-1.50;99.90;;;;;;5002479;28;20109;-75
2024/01/21 03:26:10;;;;;;;8.50;3.55;;;-1.40;99.90;;;;;;5007735;28;20378;-73
2024/01/21 03:28:35;;;;;;;8.23;3.50;;;-1.50;99.90;;;;;;5010976;28;20034;-73
2024/01/21 03:31:01;;;;;;;7.97;3.25;;;-1.50;99.90;;;;;;5009457;28;20036;-80
2024/01/21 03:33:27;;;;;;;8.68;3.72;;;-1.50;99.90;;;;;;5011829;28;20038;-74
2024/01/21 03:35:52;;;;;;;9.27;3.90;;;-1.50;99.90;;;;;;5010543;28;20482;-73
2024/01/21 03:38:18;;;;;;;8.88;3.95;;;-1.50;99.90;;;;;;5006347;28;20036;-73
2024/01/21 03:40:44;;;;;;;10.40;3.78;;;-1.50;99.90;;;;;;5011771;28;20385;-72
2024/01/21 03:43:09;;;;;;;7.25;3.60;;;-1.40;99.90;;;;;;5010601;28;20096;-73
2024/01/21 03:45:35;;;;;;;9.05;3.80;;;-1.30;99.90;;;;;;5011609;28;20038;-74
2024/01/21 03:48:01;;;;;;;9.52;3.60;;;-1.40;99.90;;;;;;5008270;28;20041;-79
2024/01/21 03:50:26;;;;;;;9.10;3.75;;;-1.40;99.90;;;;;;4991637;28;20038;-73
2024/01/21 03:52:52;;;;;;;7.07;2.70;;;-1.40;99.90;;;;;;4991844;28;20386;-75
2024/01/21 03:55:20;;;;;;;7.85;2.83;;;-1.30;99.90;;;;;;5006518;28;20076;-72
2024/01/21 03:57:46;;;;;;;7.60;3.60;;;-1.30;99.90;;;;;;5011130;28;20037;-71
2024/01/21 04:00:12;;;;;;;9.48;3.67;;;-1.30;99.90;;;;;;5008578;28;20029;-75
2024/01/21 04:02:38;;;;;;;8.60;3.47;;;-1.60;99.90;;;;;;5011358;28;20042;-72
2024/01/21 04:05:05;;;;;;;8.00;3.58;;;-1.80;99.90;;;;;;5010396;28;20026;-81
2024/01/21 04:07:31;;;;;;;8.27;3.50;;;-2.20;99.90;;;;;;5010033;28;20030;-72
2024/01/21 04:09:56;;;;;;;7.95;3.08;;;-2.70;99.90;;;;;;5010445;28;20100;-73
2024/01/21 04:12:22;;;;;;;9.80;3.42;;;-3.00;99.90;;;;;;5009853;28;20100;-74
2024/01/21 04:14:47;;;;;;;8.77;3.40;;;-3.10;99.90;;;;;;5010585;28;20091;-72
2024/01/21 04:17:13;;;;;;;7.90;3.10;;;-3.30;99.90;;;;;;5009554;28;20042;-72
2024/01/21 04:19:39;;;;;;;6.93;2.97;;;-3.20;99.90;;;;;;5010083;28;20034;-74
2024/01/21 04:22:04;;;;;;;7.93;2.90;;;-2.90;99.90;;;;;;4996337;28;20030;-81
2024/01/21 04:24:30;;;;;;;10.85;4.28;;;-2.90;99.90;;;;;;5001141;28;20030;-74
2024/01/21 04:26:56;;;;;;;9.13;3.33;;;-3.30;99.90;;;;;;5000802;28;20073;-73
2024/01/21 04:29:22;;;;;;;9.15;3.30;;;-3.60;99.90;;;;;;4994696;28;20216;-76
2024/01/21 04:31:47;;;;;;;8.43;3.35;;;-3.60;99.90;;;;;;4991008;28;20047;-73
2024/01/21 04:34:13;;;;;;;8.63;3.17;;;-3.60;99.90;;;;;;4990326;28;20030;-73
2024/01/21 04:36:38;;;;;;;8.15;3.42;;;-3.60;99.90;;;;;;4991139;28;20034;-73
2024/01/21 04:39:06;;;;;;;12.23;4.15;;;-3.60;99.90;;;;;;4998982;28;20073;-80
2024/01/21 04:41:32;;;;;;;10.52;4.97;;;-3.50;99.90;;;;;;5010352;28;20107;-74
2024/01/21 04:43:57;;;;;;;15.50;5.63;;;-3.20;99.90;;;;;;5010126;28;20057;-73
2024/01/21 04:46:23;;;;;;;17.65;6.22;;;-3.00;99.90;;;;;;5007516;28;20041;-74
2024/01/21 04:48:49;;;;;;;19.80;7.15;;;-2.80;99.90;;;;;;5003551;28;20040;-74
2024/01/21 04:51:14;;;;;;;17.77;6.10;;;-2.70;99.90;;;;;;4995402;28;20052;-71
2024/01/21 04:53:40;;;;;;;18.38;6.68;;;-2.70;99.90;;;;;;4997628;28;20034;-71
2024/01/21 04:56:06;;;;;;;15.38;6.70;;;-2.80;99.90;;;;;;5003593;28;20118;-79
2024/01/21 04:58:35;;;;;;;19.23;7.45;;;-2.80;99.90;;;;;;4990193;28;20034;-72
2024/01/21 05:01:00;;;;;;;18.70;6.63;;;-2.80;99.90;;;;;;4999851;28;20554;-73
2024/01/21 05:03:26;;;;;;;22.35;7.82;;;-2.90;99.90;;;;;;5009382;28;20089;-71
2024/01/21 05:05:52;;;;;;;19.60;7.72;;;-3.00;99.90;;;;;;5010061;28;20032;-74
2024/01/21 05:08:17;;;;;;;19.48;8.07;;;-3.00;99.90;;;;;;5008589;28;20037;-71
2024/01/21 05:10:43;;;;;;;21.48;8.25;;;-3.00;99.90;;;;;;4997976;28;20038;-74
2024/01/21 05:13:09;;;;;;;21.25;8.15;;;-3.00;99.90;;;;;;4989595;28;20038;-76
2024/01/21 05:15:34;;;;;;;17.92;7.45;;;-3.00;99.90;;;;;;4998000;28;20037;-72
2024/01/21 05:18:00;;;;;;;21.48;7.90;;;-3.00;99.90;;;;;;5009954;28;20418;-72
2024/01/21 05:20:25;;;;;;;20.15;8.52;;;-3.00;99.90;;;;;;4990703;28;20065;-73
2024/01/21 05:22:51;;;;;;;19.17;7.95;;;-3.00;99.90;;;;;;5001147;28;20036;-72
2024/01/21 05:25:17;;;;;;;16.13;6.28;;;-3.00;99.90;;;;;;4989856;28;20117;-74
2024/01/21 05:27:43;;;;;;;13.65;5.22;;;-3.10;99.90;;;;;;4990552;28;20083;-73
2024/01/21 05:30:09;;;;;;;17.95;5.85;;;-3.40;99.90;;;;;;4994519;28;20508;-79
2024/01/21 05:32:34;;;;;;;21.55;7.70;;;-3.90;99.90;;;;;;5000522;28;20463;-73
2024/01/21 05:35:00;;;;;;;24.13;8.57;;;-4.00;99.90;;;;;;4992915;28;20422;-76
2024/01/21 05:37:26;;;;;;;22.23;8.90;;;-3.90;99.90;;;;;;4995053;28;20117;-71
2024/01/21 05:39:51;;;;;;;20.08;7.82;;;-3.70;99.90;;;;;;5007244;28;20565;-74
2024/01/21 05:42:17;;;;;;;22.67;8.50;;;-3.60;99.90;;;;;;5008215;28;20040;-73
2024/01/21 05:44:42;;;;;;;12.05;4.72;;;-3.50;99.90;;;;;;5008025;28;20065;-72
2024/01/21 05:47:08;;;;;;;12.50;4.75;;;-3.70;99.90;;;;;;5012466;28;20029;-78
2024/01/21 05:49:34;;;;;;;13.73;4.72;;;-4.30;99.90;;;;;;5012174;28;20033;-73
2024/01/21 05:51:59;;;;;;;18.95;8.07;;;-4.70;99.90;;;;;;5009005;28;20105;-73
2024/01/21 05:54:25;;;;;;;22.45;8.43;;;-4.70;99.90;;;;;;5005801;28;20462;-73
2024/01/21 05:56:51;;;;;;;23.65;8.30;;;-4.50;99.90;;;;;;5007066;28;20040;-73
2024/01/21 05:59:17;;;;;;;15.60;5.90;;;-4.30;99.90;;;;;;5005299;28;20557;-72
2024/01/21 06:01:49;;;;;;;18.02;7.55;;;-4.70;99.90;;;;;;5008344;28;20046;-73
2024/01/21 06:04:16;;;;;;;15.65;5.88;;;-4.80;99.90;;;;;;4998084;28;20083;-73
2024/01/21 06:06:42;;;;;;;19.35;6.63;;;-5.00;99.90;;;;;;5009235;28;20057;-73
2024/01/21 06:09:08;;;;;;;20.95;7.45;;;-5.00;99.90;;;;;;5003567;28;20494;-79
2024/01/21 06:11:34;;;;;;;20.85;8.27;;;-5.00;99.90;;;;;;5008584;28;20037;-73
2024/01/21 06:13:59;;;;;;;24.85;9.18;;;-4.80;99.90;;;;;;5007514;28;20030;-73
2024/01/21 06:16:25;;;;;;;18.95;8.40;;;-4.60;99.90;;;;;;5006762;28;20470;-74
2024/01/21 06:18:51;;;;;;;17.55;6.53;;;-4.50;99.90;;;;;;5006892;28;20467;-73
2024/01/21 06:21:17;;;;;;;16.30;6.45;;;-4.50;99.90;;;;;;4999358;28;20053;-73
2024/01/21 06:23:44;;;;;;;15.32;5.60;;;-4.70;99.90;;;;;;5006655;28;20039;-73
2024/01/21 06:26:20;;;;;;;14.25;5.25;;;-4.80;99.90;;;;;;5002694;28;20065;-79
2024/01/21 06:28:50;;;;;;;16.63;6.70;;;-4.90;99.90;;;;;;5007569;28;20030;-73
2024/01/21 06:31:16;;;;;;;21.08;7.53;;;-4.90;99.90;;;;;;4997976;28;20022;-71
2024/01/21 06:33:42;;;;;;;19.70;7.85;;;-5.00;99.90;;;;;;4993797;28;20497;-75
2024/01/21 06:36:08;;;;;;;16.55;6.38;;;-5.00;99.90;;;;;;5004969;28;20383;-73
2024/01/21 06:38:34;;;;;;;22.98;7.32;;;-5.00;99.90;;;;;;5012417;28;20080;-73
2024/01/21 06:41:00;;;;;;;13.82;5.43;;;-4.90;99.90;;;;;;5012118;28;20042;-72
2024/01/21 06:43:25;;;;;;;14.70;5.90;;;-4.90;99.90;;;;;;5009030;28;20045;-74
2024/01/21 06:45:51;;;;;;;21.92;7.13;;;-5.00;99.90;;;;;;4997671;28;20703;-73
2024/01/21 06:48:17;;;;;;;14.60;6.55;;;-5.10;99.90;;;;;;5010336;28;20545;-71
2024/01/21 06:50:43;;;;;;;18.15;7.25;;;-5.20;99.90;;;;;;5010869;28;20567;-71
2024/01/21 06:53:08;;;;;;;14.85;6.03;;;-5.20;99.90;;;;;;5010389;28;20030;-73
2024/01/21 06:55:34;;;;;;;18.70;5.43;;;-5.30;99.90;;;;;;5018258;28;20107;-72
2024/01/21 06:58:00;;;;;;;9.13;4.03;;;-5.30;99.90;;;;;;5030847;28;20025;-72
2024/01/21 07:00:26;;;;;;;14.27;4.72;;;-5.30;99.90;;;;;;5006866;28;20436;-73
2024/01/21 07:02:51;;;;;;;11.77;4.20;;;-5.40;99.90;;;;;;5011290;28;20133;-73
2024/01/21 07:05:17;;;;;;;16.42;6.47;;;-5.30;99.90;;;;;;5011397;28;20105;-73
2024/01/21 07:07:42;;;;;;;18.90;7.63;;;-5.30;99.90;;;;;;5012282;28;20037;-73
2024/01/21 07:10:08;;;;;;;18.50;7.22;;;-5.30;99.90;;;;;;5006186;28;20080;-75
2024/01/21 07:12:35;;;;;;;12.63;4.95;;;-5.20;99.90;;;;;;5002020;28;20172;-73
2024/01/21 07:15:00;;;;;;;12.63;4.63;;;-5.30;99.90;;;;;;4995617;28;20528;-72
2024/01/21 07:17:26;;;;;;;13.00;4.45;;;-5.30;99.90;;;;;;5008671;28;20038;-73
2024/01/21 07:19:53;;;;;;;14.10;5.25;;;-5.40;99.90;;;;;;5011523;28;20053;-74
2024/01/21 07:22:20;;;;;;;15.05;6.10;;;-5.40;99.90;;;;;;5010970;28;20371;-73
2024/01/21 07:24:45;;;;;;;17.88;5.75;;;-5.30;99.90;;;;;;5012274;28;20033;-73
2024/01/21 07:27:11;;;;;;;17.48;6.78;;;-5.40;99.90;;;;;;4994833;28;20493;-71
2024/01/21 07:29:36;;;;;;;13.52;5.10;;;-5.50;99.90;;;;;;5007631;28;20034;-72
2024/01/21 07:32:02;;;;;;;12.45;5.38;;;-5.50;99.90;;;;;;5001626;28;20038;-75
2024/01/21 07:34:28;;;;;;;12.32;4.80;;;-5.40;99.90;;;;;;4991232;28;20465;-74
2024/01/21 07:36:54;;;;;;;13.73;5.05;;;-5.40;99.90;;;;;;5009859;28;20115;-73
2024/01/21 07:39:20;;;;;;;13.55;5.22;;;-5.30;99.90;;;;;;5006638;28;20471;-73
2024/01/21 07:41:45;;;;;;;16.98;5.78;;;-5.30;99.90;;;;;;5007765;28;20092;-75
2024/01/21 07:44:11;;;;;;;11.95;5.35;;;-5.20;99.90;;;;;;5009992;28;20128;-73
2024/01/21 07:46:37;;;;;;;15.40;5.20;;;-5.00;99.90;;;;;;5017759;28;20854;-72
2024/01/21 07:49:03;;;;;;;14.90;5.07;;;-4.90;99.90;;;;;;5011708;28;20032;-75
2024/01/21 07:51:29;;;;;;;10.45;4.28;;;-4.80;99.90;;;;;;5001657;28;20044;-73
2024/01/21 07:53:54;;;;;;;15.00;4.82;;;-4.70;99.90;;;;;;5010010;28;20473;-73
2024/01/21 07:56:20;;;;;;;11.43;4.75;;;-4.60;99.90;;;;;;5010626;28;20036;-72
2024/01/21 07:58:46;;;;;;;11.93;5.00;;;-4.60;99.90;;;;;;5009900;28;20432;-73
2024/01/21 08:01:12;;;;;;;15.88;5.85;;;-4.60;99.90;;;;;;5010610;28;20111;-74
2024/01/21 08:03:38;;;;;;;15.05;6.22;;;-4.50;99.90;;;;;;5017686;28;20057;-72
2024/01/21 08:06:10;;;;;;;16.85;6.22;;;-4.50;99.90;;;;;;5030572;28;20029;-72
2024/01/21 08:08:36;;;;;;;16.85;7.03;;;-4.40;99.90;;;;;;5012857;28;20026;-74
2024/01/21 08:11:01;;;;;;;23.92;9.63;;;-4.20;99.90;;;;;;5001604;28;20046;-74
2024/01/21 08:13:27;;;;;;;24.25;10.38;;;-4.20;99.90;;;;;;4994986;28;20034;-73
2024/01/21 08:15:52;;;;;;;26.48;11.07;;;-4.20;99.90;;;;;;4997414;28;20135;-73
2024/01/21 08:18:19;;;;;;;26.02;9.50;;;-4.20;99.90;;;;;;4998061;28;20037;-78
2024/01/21 08:20:45;;;;;;;18.17;7.07;;;-4.20;99.90;;;;;;4995994;28;20038;-73
2024/01/21 08:23:11;;;;;;;15.63;6.00;;;-4.20;99.90;;;;;;5010823;28;20030;-72
2024/01/21 08:25:36;;;;;;;19.25;7.20;;;-4.10;99.90;;;;;;5008840;28;20037;-71
2024/01/21 08:28:02;;;;;;;21.35;7.30;;;-4.00;99.90;;;;;;5011241;28;20030;-74
2024/01/21 08:30:28;;;;;;;18.23;7.13;;;-4.00;99.90;;;;;;5011669;28;20049;-74
2024/01/21 08:32:54;;;;;;;16.60;6.25;;;-3.90;99.90;;;;;;4991121;28;20037;-75
2024/01/21 08:35:20;;;;;;;14.85;7.07;;;-3.80;99.90;;;;;;4990455;28;20034;-80
2024/01/21 08:37:47;;;;;;;28.30;12.32;;;-3.80;99.90;;;;;;4991028;28;20129;-74
2024/01/21 08:40:12;;;;;;;24.88;9.35;;;-3.70;99.90;;;;;;5007447;28;20030;-73
2024/01/21 08:42:39;;;;;;;50.30;15.95;;;-3.50;99.90;;;;;;4995521;28;20454;-73
2024/01/21 08:45:05;;;;;;;30.58;11.13;;;-3.40;99.90;;;;;;4990906;28;20054;-74
2024/01/21 08:47:31;;;;;;;20.67;8.77;;;-3.20;99.90;;;;;;4990159;28;20478;-74
2024/01/21 08:49:56;;;;;;;17.52;7.72;;;-3.10;99.90;;;;;;5006655;28;20062;-73
2024/01/21 08:52:22;;;;;;;20.48;7.85;;;-3.00;99.90;;;;;;5009108;28;20402;-75
2024/01/21 08:54:48;;;;;;;28.23;10.52;;;-2.90;99.90;;;;;;5010067;28;20034;-74
2024/01/21 08:57:13;;;;;;;31.83;11.35;;;-2.60;99.90;;;;;;5009411;28;20030;-74
2024/01/21 08:59:39;;;;;;;26.30;10.10;;;-2.40;99.90;;;;;;4998417;28;20025;-74
2024/01/21 09:02:05;;;;;;;23.58;9.55;;;-2.30;99.90;;;;;;5010089;28;20073;-73
2024/01/21 09:04:30;;;;;;;22.60;9.05;;;-2.30;99.90;;;;;;5009042;28;20076;-73
2024/01/21 09:06:56;;;;;;;20.85;8.27;;;-2.10;99.90;;;;;;5010040;28;20034;-71
2024/01/21 09:09:22;;;;;;;20.38;8.93;;;-2.10;99.90;;;;;;5009044;28;20394;-81
2024/01/21 09:11:47;;;;;;;16.23;7.68;;;-2.00;99.90;;;;;;5009669;28;20465;-74
2024/01/21 09:14:13;;;;;;;16.60;7.55;;;-1.80;99.90;;;;;;5008440;28;20038;-74
2024/01/21 09:16:39;;;;;;;22.23;8.52;;;-1.80;99.90;;;;;;5008851;28;20029;-75
2024/01/21 09:19:05;;;;;;;19.58;7.93;;;-1.90;99.90;;;;;;5009848;28;20028;-73
2024/01/21 09:21:33;;;;;;;23.67;8.85;;;-1.70;99.90;;;;;;5009050;28;20064;-73
2024/01/21 09:24:03;;;;;;;21.58;8.52;;;-1.40;99.90;;;;;;5008337;28;20034;-73
2024/01/21 09:26:29;;;;;;;27.67;11.52;;;-1.30;99.90;;;;;;4995313;28;20058;-74
2024/01/21 09:28:55;;;;;;;31.25;13.02;;;-1.10;99.90;;;;;;5009776;28;20064;-73
2024/01/21 09:31:20;;;;;;;30.45;12.98;;;-0.90;99.90;;;;;;5009290;28;20494;-79
2024/01/21 09:33:46;;;;;;;36.15;15.07;;;-0.70;99.90;;;;;;5007727;28;20026;-73
2024/01/21 09:36:12;;;;;;;41.50;17.45;;;-0.60;99.90;;;;;;5009395;28;20026;-74
2024/01/21 09:38:37;;;;;;;41.38;18.38;;;-0.40;99.90;;;;;;4993519;28;20785;-73
2024/01/21 09:41:18;;;;;;;51.45;22.60;;;-0.30;99.90;;;;;;4989876;28;20038;-72
2024/01/21 09:43:44;;;;;;;52.00;19.08;;;-0.10;99.90;;;;;;4989063;28;20062;-77
2024/01/21 09:46:13;;;;;;;65.00;25.80;;;0.00;99.90;;;;;;4989735;28;20034;-73
2024/01/21 09:48:39;;;;;;;52.25;21.85;;;0.10;99.90;;;;;;4997967;28;20038;-74
2024/01/21 09:51:08;;;;;;;49.72;19.55;;;0.10;99.90;;;;;;5009349;28;20084;-73
2024/01/21 09:53:34;;;;;;;51.50;21.85;;;0.10;99.90;;;;;;5008520;28;20033;-75
2024/01/21 09:56:09;;;;;;;45.00;19.40;;;0.00;99.90;;;;;;5009352;28;20029;-72
2024/01/21 09:58:44;;;;;;;48.03;19.33;;;0.00;99.90;;;;;;5008593;28;20486;-73
2024/01/21 10:01:10;;;;;;;45.22;18.65;;;-0.10;99.90;;;;;;4997581;28;20121;-73
2024/01/21 10:03:36;;;;;;;56.08;23.83;;;-0.20;99.90;;;;;;5007223;28;20113;-74
2024/01/21 10:06:01;;;;;;;51.58;21.92;;;-0.30;99.90;;;;;;5008985;28;20110;-74
2024/01/21 10:08:28;;;;;;;69.20;26.45;;;-0.30;99.90;;;;;;4991849;28;20034;-74
2024/01/21 10:10:54;;;;;;;69.00;26.50;;;-0.30;99.90;;;;;;4987547;28;20498;-73
2024/01/21 10:13:19;;;;;;;54.42;22.10;;;-0.30;99.90;;;;;;5006871;28;20045;-73
2024/01/21 10:15:45;;;;;;;44.72;19.58;;;-0.30;99.90;;;;;;5005920;28;20030;-73
2024/01/21 10:18:11;;;;;;;72.28;28.83;;;-0.30;99.90;;;;;;5003982;28;20036;-74
2024/01/21 10:20:37;;;;;;;49.60;19.42;;;-0.50;99.90;;;;;;4991371;28;20039;-73
2024/01/21 10:23:11;;;;;;;46.97;17.27;;;-0.50;99.90;;;;;;4989459;28;20026;-73
2024/01/21 10:25:40;;;;;;;39.20;17.05;;;-0.50;99.90;;;;;;4988527;28;20034;-74
2024/01/21 10:28:06;;;;;;;36.88;16.20;;;-0.40;99.90;;;;;;5004618;28;20036;-73
2024/01/21 10:30:32;;;;;;;52.03;20.75;;;-0.20;99.90;;;;;;5008189;28;20110;-74
2024/01/21 10:32:59;;;;;;;63.60;22.33;;;-0.10;99.90;;;;;;5008454;28;20086;-73
2024/01/21 10:35:24;;;;;;;47.88;20.23;;;0.10;99.90;;;;;;5008611;28;20537;-79
2024/01/21 10:37:50;;;;;;;53.53;21.05;;;0.30;99.90;;;;;;5011813;28;20030;-73
2024/01/21 10:40:16;;;;;;;54.53;22.13;;;0.30;99.90;;;;;;5008805;28;20455;-74
2024/01/21 10:42:43;;;;;;;50.67;21.60;;;0.40;99.90;;;;;;5007631;28;20538;-73
2024/01/21 10:45:10;;;;;;;50.45;21.33;;;0.60;99.90;;;;;;5008899;28;20054;-73
2024/01/21 10:47:37;;;;;;;54.95;22.27;;;0.80;99.90;;;;;;5007584;28;20065;-73
2024/01/21 10:50:05;;;;;;;67.28;27.35;;;0.80;99.90;;;;;;5021425;28;20104;-72
2024/01/21 10:52:31;;;;;;;52.25;22.38;;;0.80;99.90;;;;;;5007075;28;20034;-74
2024/01/21 10:54:58;;;;;;;54.17;21.98;;;0.80;99.90;;;;;;5009851;28;20034;-74
2024/01/21 10:57:24;;;;;;;53.00;21.30;;;0.70;99.90;;;;;;5007161;28;20124;-77
2024/01/21 10:59:50;;;;;;;48.72;21.83;;;0.70;99.90;;;;;;5008110;28;20518;-74
2024/01/21 11:02:16;;;;;;;53.20;22.33;;;0.60;99.90;;;;;;4988048;28;20042;-73
2024/01/21 11:04:42;;;;;;;46.53;20.05;;;0.60;99.90;;;;;;5005136;28;20030;-75
2024/01/21 11:07:11;;;;;;;49.78;19.77;;;0.60;99.90;;;;;;5005497;28;20117;-74
2024/01/21 11:09:39;;;;;;;45.60;19.80;;;0.60;99.90;;;;;;4986935;28;20065;-73
2024/01/21 11:12:05;;;;;;;48.83;20.60;;;0.60;99.90;;;;;;4988889;28;20102;-74
2024/01/21 11:14:39;;;;;;;52.15;20.55;;;0.60;99.90;;;;;;4987994;28;20031;-73
2024/01/21 11:17:12;;;;;;;45.97;19.42;;;0.70;99.90;;;;;;4989052;28;20084;-73
2024/01/21 11:19:51;;;;;;;53.42;20.33;;;0.70;99.90;;;;;;4993142;28;20048;-74
2024/01/21 11:22:23;;;;;;;54.28;21.25;;;0.80;99.90;;;;;;5023696;28;20037;-73
2024/01/21 11:24:53;;;;;;;47.20;18.92;;;0.90;99.90;;;;;;5002436;28;20023;-73
2024/01/21 11:27:21;;;;;;;50.40;20.88;;;0.90;99.90;;;;;;4991160;28;20402;-74
2024/01/21 11:30:00;;;;;;;45.92;19.33;;;0.90;99.90;;;;;;4991572;28;20030;-73
2024/01/21 11:32:28;;;;;;;48.30;20.00;;;1.00;99.90;;;;;;4992693;28;20038;-73
2024/01/21 11:34:55;;;;;;;52.85;20.02;;;1.10;99.90;;;;;;4992248;28;20114;-73
2024/01/21 11:37:22;;;;;;;47.22;20.23;;;1.20;99.90;;;;;;4992288;28;20179;-74
2024/01/21 11:39:49;;;;;;;51.88;20.40;;;1.30;99.90;;;;;;5001037;28;20697;-73
2024/01/21 11:42:15;;;;;;;50.67;21.42;;;1.60;99.90;;;;;;5011391;28;20402;-73
2024/01/21 11:44:40;;;;;;;49.95;20.48;;;1.90;99.90;;;;;;5010961;28;20184;-72
2024/01/21 11:47:07;;;;;;;50.45;19.95;;;2.20;99.90;;;;;;5010441;28;20105;-74
2024/01/21 11:49:34;;;;;;;44.45;20.52;;;2.40;99.90;;;;;;4999646;28;20038;-75
2024/01/21 11:52:05;;;;;;;45.97;19.92;;;2.50;99.90;;;;;;5009106;28;20092;-73
2024/01/21 11:54:39;;;;;;;53.00;20.33;;;2.50;99.90;;;;;;5001016;28;20026;-78
2024/01/21 11:57:06;;;;;;;51.38;21.83;;;2.50;99.90;;;;;;5005806;28;20038;-73
2024/01/21 11:59:32;;;;;;;49.47;21.13;;;2.40;99.90;;;;;;5008765;28;20022;-78
2024/01/21 12:01:57;;;;;;;49.70;22.92;;;2.30;99.90;;;;;;5009154;28;20046;-73
2024/01/21 12:04:24;;;;;;;46.90;21.83;;;2.10;99.90;;;;;;5003577;28;20034;-74
2024/01/21 12:06:52;;;;;;;47.42;21.67;;;1.80;99.90;;;;;;5004412;28;20058;-77
2024/01/21 12:09:19;;;;;;;55.28;22.30;;;1.70;99.90;;;;;;5004844;28;20604;-74
2024/01/21 12:11:47;;;;;;;50.30;22.20;;;1.60;99.90;;;;;;5006260;28;20038;-74
2024/01/21 12:14:13;;;;;;;52.20;21.55;;;1.60;99.90;;;;;;5002128;28;20577;-74
2024/01/21 12:16:40;;;;;;;52.47;23.27;;;1.60;99.90;;;;;;5017279;28;20390;-74
2024/01/21 12:19:06;;;;;;;47.38;20.95;;;1.70;99.90;;;;;;5008427;28;20383;-74
2024/01/21 12:21:33;;;;;;;43.20;19.70;;;1.80;99.90;;;;;;5004580;28;20038;-79
2024/01/21 12:24:00;;;;;;;48.03;20.42;;;2.00;99.90;;;;;;5000968;28;20387;-74
2024/01/21 12:26:26;;;;;;;47.17;18.23;;;2.20;99.90;;;;;;5007900;28;20041;-74
2024/01/21 12:29:03;;;;;;;36.55;16.48;;;2.40;99.90;;;;;;5007997;28;20097;-75
2024/01/21 12:31:33;;;;;;;39.17;16.23;;;2.90;99.90;;;;;;5005406;28;20068;-74
2024/01/21 12:34:05;;;;;;;37.78;14.95;;;3.30;99.90;;;;;;5005974;28;20409;-75